Data Viewer
| City | State | Eastern Time | Source | Daily Temp Max | Daily Temp Min | Daily Dew Point Max | Daily Dew Point Min | Daily RH Max | Daily Min RH | Daily BP Max | Daily BP Min | Daily Precip | Daily Wind Max | Daily Wind Max Dir |
|---|---|---|---|---|---|---|---|---|---|---|---|---|---|---|
| Sea Girt | NJ | 2026-04-05 | Mesonet | 64 | 44 | 60 | 37 | 100 | 59 | 30.18 | 29.78 | 0.24 | 35 | WNW |
| Sea Girt | NJ | 2026-04-21 | Mesonet | 48 | 30 | 38 | 22 | 78 | 42 | 30.43 | 30.27 | 0.00 | 22 | S |
| Sea Girt | NJ | 2026-05-04 | Mesonet | 71 | 49 | 55 | 33 | 87 | 33 | 30.01 | 29.84 | 0.00 | 30 | S |
| Sea Girt | NJ | 2026-05-03 | Mesonet | 61 | 46 | 39 | 27 | 63 | 28 | 29.96 | 29.83 | 0.00 | 31 | WNW |
| Sea Girt | NJ | 2026-05-02 | Mesonet | 58 | 50 | 52 | 38 | 92 | 60 | 29.93 | 29.84 | 0.00 | 14 | NW |
| Sea Girt | NJ | 2026-05-01 | Mesonet | 59 | 45 | 50 | 36 | 90 | 44 | 29.97 | 29.86 | 0.00 | 24 | SSE |
| Sea Girt | NJ | 2026-04-30 | Mesonet | 58 | 48 | 55 | 48 | 100 | 74 | 29.87 | 29.74 | 0.56 | 21 | SSE |
| Sea Girt | NJ | 2026-04-29 | Mesonet | 56 | 49 | 50 | 43 | 100 | 74 | 30.12 | 29.83 | 0.21 | 16 | SSE |
| Sea Girt | NJ | 2026-04-28 | Mesonet | 58 | 43 | 52 | 38 | 91 | 58 | 30.26 | 30.07 | 0.00 | 12 | S |
| Sea Girt | NJ | 2026-04-27 | Mesonet | 60 | 39 | 50 | 38 | 96 | 54 | 30.30 | 30.19 | 0.00 | 12 | ESE |
| Sea Girt | NJ | 2026-04-26 | Mesonet | 51 | 40 | 47 | 38 | 100 | 78 | 30.21 | 30.01 | 0.30 | 30 | NE |
| Sea Girt | NJ | 2026-04-25 | Mesonet | 51 | 44 | 48 | 40 | 99 | 73 | 30.07 | 29.95 | 0.84 | 34 | ESE |
| Sea Girt | NJ | 2026-04-24 | Mesonet | 58 | 49 | 51 | 40 | 92 | 51 | 29.96 | 29.79 | 0.00 | 21 | NE |
| Sea Girt | NJ | 2026-04-23 | Mesonet | 62 | 42 | 57 | 42 | 100 | 67 | 30.01 | 29.84 | 0.00 | 18 | S |
| Sea Girt | NJ | 2026-04-22 | Mesonet | 54 | 46 | 51 | 37 | 100 | 68 | 30.29 | 29.98 | 0.03 | 30 | SSE |
| Sea Girt | NJ | 2026-04-20 | Mesonet | 54 | 34 | 42 | 21 | 100 | 35 | 30.35 | 30.12 | 0.00 | 24 | NW |
| Sea Girt | NJ | 2026-04-06 | Mesonet | 58 | 42 | 42 | 28 | 77 | 33 | 30.12 | 29.94 | 0.00 | 34 | WNW |
| Sea Girt | NJ | 2026-04-19 | Mesonet | 54 | 40 | 52 | 35 | 100 | 66 | 30.13 | 29.76 | 0.05 | 34 | NW |
| Sea Girt | NJ | 2026-04-18 | Mesonet | 54 | 47 | 54 | 47 | 100 | 93 | 30.13 | 29.94 | 0.00 | 20 | E |
| Sea Girt | NJ | 2026-04-17 | Mesonet | 78 | 51 | 66 | 50 | 100 | 53 | 30.04 | 29.75 | 0.05 | 20 | ESE |
| Sea Girt | NJ | 2026-04-16 | Mesonet | 79 | 53 | 65 | 50 | 96 | 55 | 29.95 | 29.76 | 0.00 | 19 | SSE |
| Sea Girt | NJ | 2026-04-15 | Mesonet | 90 | 59 | 66 | 52 | 88 | 39 | 30.00 | 29.86 | 0.00 | 25 | WSW |
| Sea Girt | NJ | 2026-04-14 | Mesonet | 88 | 57 | 63 | 49 | 83 | 39 | 30.04 | 29.86 | 0.00 | 25 | W |
| Sea Girt | NJ | 2026-04-13 | Mesonet | 81 | 47 | 61 | 44 | 99 | 44 | 30.35 | 29.96 | 0.00 | 31 | SW |
| Sea Girt | NJ | 2026-04-12 | Mesonet | 53 | 45 | 46 | 32 | 97 | 45 | 30.58 | 30.34 | 0.00 | 20 | SSE |
| Sea Girt | NJ | 2026-04-11 | Mesonet | 66 | 48 | 48 | 29 | 85 | 27 | 30.40 | 30.10 | 0.00 | 25 | NW |
| Sea Girt | NJ | 2026-04-10 | Mesonet | 52 | 41 | 48 | 38 | 98 | 60 | 30.48 | 30.15 | 0.00 | 24 | S |
| Sea Girt | NJ | 2026-04-09 | Mesonet | 47 | 30 | 43 | 28 | 97 | 68 | 30.65 | 30.47 | 0.00 | 16 | SSE |
| Sea Girt | NJ | 2026-04-08 | Mesonet | 42 | 31 | 33 | 16 | 79 | 45 | 30.67 | 30.51 | 0.00 | 27 | NNE |
| Sea Girt | NJ | 2026-04-07 | Mesonet | 57 | 37 | 41 | 13 | 74 | 23 | 30.51 | 30.09 | 0.00 | 34 | NW |
| Sea Girt | NJ | 2026-05-05 | Mesonet | 59 | 53 | 56 | 52 | 99 | 82 | 29.89 | 29.86 | 0.00 | 15 | S |
data collection created in 0.019017219543457 (queried in 0.011739) rendered in: 6.7949295043945E-5

